createdAt,value
2023-05-16T00:01:39.684Z,100.00
2023-05-16T00:04:08.418Z,100.00
2023-05-16T00:06:36.593Z,100.00
2023-05-16T00:09:04.552Z,100.00
2023-05-16T00:11:32.544Z,100.00
2023-05-16T00:14:01.661Z,100.00
2023-05-16T00:16:30.328Z,100.00
2023-05-16T00:18:59.949Z,100.00
2023-05-16T00:21:28.526Z,100.00
2023-05-16T00:23:56.464Z,100.00
2023-05-16T00:26:24.402Z,100.00
2023-05-16T00:28:52.470Z,100.00
2023-05-16T00:31:20.728Z,100.00
2023-05-16T00:33:49.375Z,100.00
2023-05-16T00:36:17.307Z,100.00
2023-05-16T00:38:48.555Z,100.00
2023-05-16T00:41:18.301Z,100.00
2023-05-16T00:43:46.200Z,100.00
2023-05-16T00:46:14.120Z,100.00
2023-05-16T00:48:42.427Z,100.00
2023-05-16T00:51:10.809Z,100.00
2023-05-16T00:53:38.856Z,100.00
2023-05-16T00:56:07.527Z,100.00
2023-05-16T00:58:35.731Z,100.00
2023-05-16T01:01:05.245Z,100.00
2023-05-16T01:03:33.535Z,100.00
2023-05-16T01:06:01.710Z,100.00
2023-05-16T01:08:29.710Z,100.00
2023-05-16T01:11:46.540Z,100.00
2023-05-16T01:14:38.908Z,100.00
2023-05-16T01:17:24.134Z,100.00
2023-05-16T01:20:08.846Z,100.00
2023-05-16T01:22:48.888Z,100.00
2023-05-16T01:25:31.779Z,100.00
2023-05-16T01:28:03.335Z,100.00
2023-05-16T01:30:40.036Z,100.00
2023-05-16T01:33:10.431Z,100.00
2023-05-16T01:35:51.723Z,100.00
2023-05-16T01:38:28.760Z,100.00
2023-05-16T01:41:08.676Z,100.00
2023-05-16T01:43:46.503Z,100.00
2023-05-16T01:46:26.309Z,100.00
2023-05-16T01:49:07.435Z,100.00
2023-05-16T01:51:39.656Z,100.00
2023-05-16T01:54:13.899Z,100.00
2023-05-16T01:56:50.227Z,100.00
2023-05-16T01:59:22.608Z,100.00
2023-05-16T02:01:56.977Z,100.00
2023-05-16T02:04:24.979Z,100.00
2023-05-16T02:06:53.094Z,100.00
2023-05-16T02:09:21.414Z,100.00
2023-05-16T02:11:49.371Z,100.00
2023-05-16T02:14:17.480Z,100.00
2023-05-16T02:16:48.450Z,100.00
2023-05-16T02:19:18.325Z,100.00
2023-05-16T02:21:46.311Z,100.00
2023-05-16T02:24:14.737Z,100.00
2023-05-16T02:26:42.767Z,100.00
2023-05-16T02:29:11.320Z,100.00
2023-05-16T02:31:39.582Z,100.00
2023-05-16T02:34:08.151Z,100.00
2023-05-16T02:36:36.416Z,100.00
2023-05-16T02:39:06.700Z,100.00
2023-05-16T02:41:34.745Z,100.00
2023-05-16T02:44:02.816Z,100.00
2023-05-16T02:46:35.213Z,100.00
2023-05-16T02:49:05.087Z,100.00
2023-05-16T02:51:33.480Z,100.00
2023-05-16T02:54:01.518Z,100.00
2023-05-16T02:56:29.433Z,100.00
2023-05-16T02:58:57.545Z,100.00
2023-05-16T03:01:25.709Z,100.00
2023-05-16T03:03:53.879Z,100.00
2023-05-16T03:06:22.171Z,100.00
2023-05-16T03:08:49.985Z,100.00
2023-05-16T03:11:21.863Z,100.00
2023-05-16T03:13:49.977Z,100.00
2023-05-16T03:16:17.849Z,100.00
2023-05-16T03:18:47.631Z,100.00
2023-05-16T03:21:15.653Z,100.00
2023-05-16T03:23:45.963Z,100.00
2023-05-16T03:26:14.089Z,100.00
2023-05-16T03:28:42.996Z,100.00
2023-05-16T03:31:11.692Z,100.00
2023-05-16T03:33:39.864Z,100.00
2023-05-16T03:36:08.373Z,100.00
2023-05-16T03:38:37.200Z,100.00
2023-05-16T03:41:05.144Z,100.00
2023-05-16T03:43:33.254Z,100.00
2023-05-16T03:46:04.293Z,100.00
2023-05-16T03:48:32.248Z,100.00
2023-05-16T03:51:00.338Z,100.00
2023-05-16T03:53:28.122Z,100.00
2023-05-16T03:55:55.985Z,100.00
2023-05-16T03:58:23.918Z,100.00
2023-05-16T04:00:51.798Z,100.00
2023-05-16T04:03:19.836Z,100.00
2023-05-16T04:05:47.885Z,100.00
2023-05-16T04:08:15.699Z,100.00
2023-05-16T04:10:43.534Z,100.00
2023-05-16T04:13:11.741Z,100.00
2023-05-16T04:15:39.589Z,100.00
2023-05-16T04:18:09.783Z,100.00
2023-05-16T04:20:37.857Z,100.00
2023-05-16T04:23:06.127Z,100.00
2023-05-16T04:25:34.382Z,100.00
2023-05-16T04:28:02.558Z,100.00
2023-05-16T04:30:30.744Z,100.00
2023-05-16T04:33:01.288Z,100.00
2023-05-16T04:35:29.833Z,100.00
2023-05-16T04:37:58.141Z,100.00
2023-05-16T04:40:27.301Z,100.00
2023-05-16T04:42:56.053Z,100.00
2023-05-16T04:45:26.689Z,100.00
2023-05-16T04:47:55.186Z,100.00
2023-05-16T04:50:23.734Z,100.00
2023-05-16T04:52:52.824Z,100.00
2023-05-16T04:55:21.922Z,100.00
2023-05-16T04:57:50.046Z,100.00
2023-05-16T05:00:18.573Z,100.00
2023-05-16T05:02:47.645Z,100.00
2023-05-16T05:05:15.953Z,100.00
2023-05-16T05:07:43.999Z,100.00
2023-05-16T05:10:12.758Z,100.00
2023-05-16T05:12:41.416Z,100.00
2023-05-16T05:15:09.577Z,100.00
2023-05-16T05:17:38.055Z,100.00
2023-05-16T05:20:07.027Z,100.00
2023-05-16T05:22:34.941Z,100.00
2023-05-16T05:25:03.120Z,100.00
2023-05-16T05:27:31.641Z,100.00
2023-05-16T05:29:59.756Z,100.00
2023-05-16T05:32:27.866Z,100.00
2023-05-16T05:34:56.026Z,100.00
2023-05-16T05:37:25.589Z,100.00
2023-05-16T05:39:53.709Z,100.00
2023-05-16T05:42:21.760Z,100.00
2023-05-16T05:44:49.698Z,100.00
2023-05-16T05:47:18.682Z,100.00
2023-05-16T05:49:47.324Z,100.00
2023-05-16T05:52:15.332Z,100.00
2023-05-16T05:54:43.360Z,100.00
2023-05-16T05:57:11.639Z,100.00
2023-05-16T05:59:39.500Z,100.00
2023-05-16T06:02:08.219Z,100.00
2023-05-16T06:04:36.700Z,100.00
2023-05-16T06:07:05.149Z,100.00
2023-05-16T06:09:32.982Z,100.00
2023-05-16T06:12:00.996Z,100.00
2023-05-16T06:14:29.898Z,100.00
2023-05-16T06:16:58.072Z,100.00
2023-05-16T06:19:26.382Z,100.00
2023-05-16T06:21:54.598Z,100.00
2023-05-16T06:24:23.021Z,100.00
2023-05-16T06:26:51.067Z,100.00
2023-05-16T06:29:19.602Z,100.00
2023-05-16T06:31:49.363Z,100.00
2023-05-16T06:34:17.368Z,100.00
2023-05-16T06:36:45.517Z,100.00
2023-05-16T06:39:13.594Z,100.00
2023-05-16T06:41:41.930Z,100.00
2023-05-16T06:44:16.683Z,100.00
2023-05-16T06:46:44.989Z,100.00
2023-05-16T06:49:13.583Z,100.00
2023-05-16T06:51:41.699Z,100.00
2023-05-16T06:54:09.763Z,100.00
2023-05-16T06:56:37.895Z,100.00
2023-05-16T06:59:07.358Z,100.00
2023-05-16T07:01:38.318Z,100.00
2023-05-16T07:04:07.877Z,100.00
2023-05-16T07:06:37.118Z,100.00
2023-05-16T07:09:06.044Z,100.00
2023-05-16T07:11:34.595Z,100.00
2023-05-16T07:14:05.097Z,100.00
2023-05-16T07:16:34.458Z,100.00
2023-05-16T07:19:03.633Z,100.00
2023-05-16T07:21:32.826Z,100.00
2023-05-16T07:24:03.399Z,100.00
2023-05-16T07:26:32.341Z,100.00
2023-05-16T07:29:02.838Z,100.00
2023-05-16T07:31:31.568Z,100.00
2023-05-16T07:33:59.949Z,100.00
2023-05-16T07:36:28.106Z,100.00
2023-05-16T07:38:56.566Z,100.00
2023-05-16T07:41:25.624Z,100.00
2023-05-16T07:43:53.827Z,100.00
2023-05-16T07:46:22.920Z,100.00
2023-05-16T07:48:51.123Z,100.00
2023-05-16T07:51:19.210Z,100.00
2023-05-16T07:53:48.113Z,100.00
2023-05-16T07:56:16.434Z,100.00
2023-05-16T07:58:44.520Z,100.00
2023-05-16T08:01:12.905Z,100.00
2023-05-16T08:03:41.152Z,100.00
2023-05-16T08:06:09.537Z,100.00
2023-05-16T08:08:38.149Z,100.00
2023-05-16T08:11:06.517Z,100.00
2023-05-16T08:13:34.532Z,100.00
2023-05-16T08:16:02.872Z,100.00
2023-05-16T08:18:31.363Z,100.00
2023-05-16T08:20:59.504Z,100.00
2023-05-16T08:23:27.696Z,100.00
2023-05-16T08:25:55.812Z,100.00
2023-05-16T08:28:24.074Z,100.00
2023-05-16T08:30:52.530Z,100.00
2023-05-16T08:33:20.774Z,100.00
2023-05-16T08:35:52.872Z,100.00
2023-05-16T08:38:21.049Z,100.00
2023-05-16T08:40:48.994Z,100.00
2023-05-16T08:43:17.113Z,100.00
2023-05-16T08:45:45.980Z,100.00
2023-05-16T08:48:17.383Z,100.00
2023-05-16T08:50:45.689Z,100.00
2023-05-16T08:53:19.657Z,100.00
2023-05-16T08:55:49.666Z,100.00
2023-05-16T08:58:19.178Z,100.00
2023-05-16T09:00:48.170Z,100.00
2023-05-16T09:03:17.922Z,100.00
2023-05-16T09:05:48.742Z,100.00
2023-05-16T09:08:17.365Z,100.00
2023-05-16T09:10:45.705Z,100.00
2023-05-16T09:13:14.459Z,100.00
2023-05-16T09:15:42.826Z,100.00
2023-05-16T09:18:16.583Z,100.00
2023-05-16T09:20:50.279Z,100.00
2023-05-16T09:23:25.882Z,100.00
2023-05-16T09:25:55.323Z,100.00
2023-05-16T09:28:25.860Z,100.00
2023-05-16T09:30:55.825Z,100.00
2023-05-16T09:33:24.456Z,100.00
2023-05-16T09:36:11.629Z,100.00
2023-05-16T09:38:40.127Z,100.00
2023-05-16T09:41:10.812Z,100.00
2023-05-16T09:43:42.153Z,100.00
2023-05-16T09:46:15.976Z,100.00
2023-05-16T09:48:49.216Z,100.00
2023-05-16T09:51:23.141Z,100.00
2023-05-16T09:53:52.103Z,100.00
2023-05-16T09:56:21.746Z,100.00
2023-05-16T09:58:53.412Z,100.00
2023-05-16T10:01:23.379Z,100.00
2023-05-16T10:03:52.326Z,100.00
2023-05-16T10:06:21.282Z,100.00
2023-05-16T10:08:50.060Z,100.00
2023-05-16T10:11:20.236Z,100.00
2023-05-16T10:13:53.507Z,100.00
2023-05-16T10:16:24.542Z,100.00
2023-05-16T10:18:53.573Z,100.00
2023-05-16T10:21:23.555Z,100.00
2023-05-16T10:23:53.457Z,100.00
2023-05-16T10:26:23.799Z,100.00
2023-05-16T10:28:53.225Z,100.00
2023-05-16T10:31:21.594Z,100.00
2023-05-16T10:33:50.502Z,100.00
2023-05-16T10:36:19.442Z,100.00
2023-05-16T10:38:48.655Z,100.00
2023-05-16T10:41:17.994Z,100.00
2023-05-16T10:43:58.221Z,100.00
2023-05-16T10:46:29.440Z,100.00
2023-05-16T10:48:58.887Z,100.00
2023-05-16T10:51:37.747Z,100.00
2023-05-16T10:54:12.852Z,100.00
2023-05-16T10:56:43.613Z,100.00
2023-05-16T10:59:27.157Z,100.00
2023-05-16T11:01:57.404Z,100.00
2023-05-16T11:04:48.368Z,100.00
2023-05-16T11:07:23.055Z,100.00
2023-05-16T11:10:10.620Z,100.00
2023-05-16T11:12:52.498Z,100.00
2023-05-16T11:15:29.360Z,100.00
2023-05-16T11:18:16.112Z,100.00
2023-05-16T11:20:44.518Z,100.00
2023-05-16T11:23:24.060Z,100.00
2023-05-16T11:25:59.166Z,100.00
2023-05-16T11:28:28.383Z,100.00
2023-05-16T11:31:02.315Z,100.00
2023-05-16T11:33:35.874Z,100.00
2023-05-16T11:38:44.140Z,94.03
2023-05-16T11:41:18.957Z,90.75
2023-05-16T11:43:50.063Z,91.76
2023-05-16T11:46:19.464Z,94.25
2023-05-16T11:48:48.376Z,93.08
2023-05-16T11:51:21.068Z,92.95
2023-05-16T11:53:51.372Z,88.82
2023-05-16T11:56:22.656Z,91.14
2023-05-16T11:58:52.361Z,90.53
2023-05-16T12:01:20.530Z,90.77
2023-05-16T12:03:58.818Z,90.22
2023-05-16T12:06:29.596Z,87.99
2023-05-16T12:09:00.153Z,90.56
2023-05-16T12:11:28.613Z,89.28
2023-05-16T12:13:57.057Z,84.60
2023-05-16T12:16:26.443Z,84.08
2023-05-16T12:18:55.131Z,81.11
2023-05-16T12:21:23.074Z,81.94
2023-05-16T12:23:56.097Z,80.60
2023-05-16T12:26:33.715Z,80.57
2023-05-16T12:29:05.381Z,79.44
2023-05-16T12:31:39.137Z,78.54
2023-05-16T12:34:20.639Z,82.39
2023-05-16T12:36:52.957Z,79.90
2023-05-16T12:39:23.040Z,84.41
2023-05-16T12:41:52.879Z,80.43
2023-05-16T12:44:24.255Z,80.25
2023-05-16T12:46:54.118Z,77.60
2023-05-16T12:49:23.545Z,75.84
2023-05-16T12:51:55.421Z,76.86
2023-05-16T12:54:24.491Z,77.48
2023-05-16T12:56:53.609Z,76.63
2023-05-16T12:59:23.364Z,77.43
2023-05-16T13:01:52.018Z,76.11
2023-05-16T13:04:21.656Z,76.13
2023-05-16T13:09:22.674Z,76.93
2023-05-16T13:11:50.960Z,78.80
2023-05-16T13:14:19.165Z,79.76
2023-05-16T13:16:47.939Z,78.94
2023-05-16T13:19:16.645Z,79.54
2023-05-16T13:21:45.008Z,75.85
2023-05-16T13:24:14.363Z,75.00
2023-05-16T13:26:42.885Z,75.77
2023-05-16T13:29:12.390Z,76.04
2023-05-16T13:31:40.640Z,75.47
2023-05-16T13:34:08.650Z,73.12
2023-05-16T13:36:52.251Z,72.23
2023-05-16T13:39:22.573Z,74.43
2023-05-16T13:41:51.582Z,74.71
2023-05-16T13:44:19.703Z,75.56
2023-05-16T13:46:47.927Z,73.21
2023-05-16T13:49:15.782Z,75.99
2023-05-16T13:51:43.783Z,73.82
2023-05-16T13:54:12.174Z,73.25
2023-05-16T13:56:40.140Z,75.99
2023-05-16T13:59:10.185Z,75.80
2023-05-16T14:01:39.998Z,75.67
2023-05-16T14:04:08.276Z,75.63
2023-05-16T14:06:36.239Z,79.61
2023-05-16T14:09:04.551Z,79.48
2023-05-16T14:11:32.487Z,77.97
2023-05-16T14:14:01.340Z,80.14
2023-05-16T14:16:31.321Z,76.47
2023-05-16T14:18:59.573Z,78.75
2023-05-16T14:21:27.507Z,78.08
2023-05-16T14:23:55.663Z,80.25
2023-05-16T14:26:25.526Z,78.97
2023-05-16T14:28:56.571Z,79.37
2023-05-16T14:31:24.690Z,79.71
2023-05-16T14:33:52.814Z,78.20
2023-05-16T14:36:20.794Z,79.45
2023-05-16T14:38:49.323Z,81.51
2023-05-16T14:41:17.933Z,81.68
2023-05-16T14:43:46.300Z,84.27
2023-05-16T14:46:14.443Z,80.81
2023-05-16T14:48:42.558Z,82.65
2023-05-16T14:51:10.957Z,82.18
2023-05-16T14:53:39.050Z,82.87
2023-05-16T14:56:07.460Z,85.91
2023-05-16T14:58:35.895Z,85.95
2023-05-16T15:01:04.774Z,86.23
2023-05-16T15:03:43.343Z,86.07
2023-05-16T15:06:19.150Z,84.35
2023-05-16T15:08:47.237Z,87.00
2023-05-16T15:11:15.116Z,88.54
2023-05-16T15:16:11.374Z,87.54
2023-05-16T15:18:40.516Z,88.93
2023-05-16T15:21:09.395Z,90.54
2023-05-16T15:23:37.445Z,90.63
2023-05-16T15:26:06.580Z,91.70
2023-05-16T15:28:34.631Z,88.70
2023-05-16T15:31:07.485Z,89.99
2023-05-16T15:33:45.428Z,91.91
2023-05-16T15:36:16.643Z,92.50
2023-05-16T15:38:45.852Z,93.06
2023-05-16T15:41:31.523Z,92.75
2023-05-16T15:44:04.885Z,93.57
2023-05-16T15:46:33.420Z,94.40
2023-05-16T15:49:01.621Z,94.23
2023-05-16T15:51:29.699Z,96.17
2023-05-16T15:53:57.703Z,98.00
2023-05-16T15:56:25.979Z,95.76
2023-05-16T15:58:56.462Z,98.04
2023-05-16T16:01:25.296Z,99.64
2023-05-16T16:03:53.491Z,100.00
2023-05-16T16:06:21.958Z,100.00
2023-05-16T16:08:51.413Z,100.00
2023-05-16T16:11:23.636Z,100.00
2023-05-16T16:13:52.773Z,100.00
2023-05-16T16:16:21.906Z,100.00
2023-05-16T16:18:50.634Z,100.00
2023-05-16T16:21:19.229Z,100.00
2023-05-16T16:23:47.443Z,100.00
2023-05-16T16:26:16.755Z,100.00
2023-05-16T16:28:46.159Z,100.00
2023-05-16T16:31:15.250Z,100.00
2023-05-16T16:33:43.855Z,100.00
2023-05-16T16:36:12.084Z,100.00
2023-05-16T16:38:40.200Z,100.00
2023-05-16T16:41:08.640Z,100.00
2023-05-16T16:43:41.239Z,100.00
2023-05-16T16:46:09.728Z,100.00
2023-05-16T16:48:38.262Z,100.00
2023-05-16T16:51:06.347Z,100.00
2023-05-16T16:53:35.404Z,100.00
2023-05-16T16:56:03.785Z,100.00
2023-05-16T16:58:31.883Z,100.00
2023-05-16T17:01:00.299Z,100.00
2023-05-16T17:03:28.474Z,100.00
2023-05-16T17:05:56.946Z,100.00
2023-05-16T17:08:25.145Z,100.00
2023-05-16T17:10:53.493Z,100.00
2023-05-16T17:13:21.879Z,100.00
2023-05-16T17:15:50.123Z,100.00
2023-05-16T17:18:19.756Z,100.00
2023-05-16T17:20:47.786Z,100.00
2023-05-16T17:23:16.079Z,100.00
2023-05-16T17:25:45.327Z,100.00
2023-05-16T17:28:14.046Z,100.00
2023-05-16T17:30:42.135Z,100.00
2023-05-16T17:33:12.837Z,100.00
2023-05-16T17:35:41.362Z,100.00
2023-05-16T17:38:10.425Z,100.00
2023-05-16T17:40:38.902Z,100.00
2023-05-16T17:43:07.032Z,100.00
2023-05-16T17:45:35.205Z,100.00
2023-05-16T17:48:03.644Z,100.00
2023-05-16T17:50:32.685Z,100.00
2023-05-16T17:53:00.715Z,100.00
2023-05-16T17:55:30.314Z,100.00
2023-05-16T17:57:58.471Z,100.00
2023-05-16T18:00:26.919Z,100.00
2023-05-16T18:02:55.677Z,100.00
2023-05-16T18:05:24.438Z,100.00
2023-05-16T18:07:53.946Z,100.00
2023-05-16T18:10:22.167Z,100.00
2023-05-16T18:12:50.544Z,100.00
2023-05-16T18:15:19.001Z,100.00
2023-05-16T18:17:47.531Z,100.00
2023-05-16T18:20:15.982Z,100.00
2023-05-16T18:22:44.643Z,100.00
2023-05-16T18:25:13.117Z,100.00
2023-05-16T18:27:41.632Z,100.00
2023-05-16T18:30:10.968Z,100.00
2023-05-16T18:32:42.157Z,100.00
2023-05-16T18:35:11.412Z,100.00
2023-05-16T18:37:43.504Z,100.00
2023-05-16T18:40:14.686Z,100.00
2023-05-16T18:42:42.989Z,100.00
2023-05-16T18:45:12.291Z,100.00
2023-05-16T18:47:40.649Z,100.00
2023-05-16T18:50:09.780Z,100.00
2023-05-16T18:52:40.605Z,100.00
2023-05-16T18:55:09.449Z,100.00
2023-05-16T18:57:37.561Z,100.00
2023-05-16T19:00:07.676Z,100.00
2023-05-16T19:05:11.198Z,100.00
2023-05-16T19:07:39.554Z,100.00
2023-05-16T19:10:12.679Z,100.00
2023-05-16T19:12:42.097Z,100.00
2023-05-16T19:15:11.789Z,100.00
2023-05-16T19:17:41.837Z,100.00
2023-05-16T19:20:11.235Z,100.00
2023-05-16T19:22:39.593Z,100.00
2023-05-16T19:25:08.469Z,100.00
2023-05-16T19:27:36.899Z,100.00
2023-05-16T19:30:06.414Z,100.00
2023-05-16T19:32:34.629Z,100.00
2023-05-16T19:35:03.971Z,100.00
2023-05-16T19:37:32.618Z,100.00
2023-05-16T19:40:00.918Z,100.00
2023-05-16T19:42:29.666Z,100.00
2023-05-16T19:44:59.230Z,100.00
2023-05-16T19:47:27.235Z,100.00
2023-05-16T19:49:55.583Z,100.00
2023-05-16T19:52:26.140Z,100.00
2023-05-16T19:54:54.192Z,100.00
2023-05-16T19:57:22.316Z,100.00
2023-05-16T19:59:50.605Z,100.00
2023-05-16T20:02:21.167Z,100.00
2023-05-16T20:04:50.890Z,100.00
2023-05-16T20:07:19.194Z,100.00
2023-05-16T20:09:48.188Z,100.00
2023-05-16T20:12:18.822Z,100.00
2023-05-16T20:14:48.167Z,100.00
2023-05-16T20:17:16.425Z,100.00
2023-05-16T20:19:44.793Z,100.00
2023-05-16T20:22:13.051Z,100.00
2023-05-16T20:24:41.371Z,100.00
2023-05-16T20:27:09.526Z,100.00
2023-05-16T20:29:37.860Z,100.00
2023-05-16T20:32:06.405Z,100.00
2023-05-16T20:34:34.923Z,100.00
2023-05-16T20:37:03.094Z,100.00
2023-05-16T20:39:32.282Z,100.00
2023-05-16T20:42:00.731Z,100.00
2023-05-16T20:44:29.612Z,100.00
2023-05-16T20:46:58.401Z,100.00
2023-05-16T20:49:26.953Z,100.00
2023-05-16T20:51:55.120Z,100.00
2023-05-16T20:54:23.389Z,100.00
2023-05-16T20:56:51.614Z,100.00
2023-05-16T20:59:20.109Z,100.00
2023-05-16T21:01:48.333Z,100.00
2023-05-16T21:04:17.199Z,100.00
2023-05-16T21:06:45.712Z,100.00
2023-05-16T21:09:14.046Z,100.00
2023-05-16T21:11:42.112Z,100.00
2023-05-16T21:14:10.197Z,100.00
2023-05-16T21:16:38.237Z,100.00
2023-05-16T21:19:06.937Z,100.00
2023-05-16T21:21:35.093Z,100.00
2023-05-16T21:24:04.381Z,100.00
2023-05-16T21:26:32.394Z,100.00
2023-05-16T21:29:00.586Z,100.00
2023-05-16T21:31:28.956Z,100.00
2023-05-16T21:33:57.069Z,100.00
2023-05-16T21:36:25.209Z,100.00
2023-05-16T21:38:53.245Z,100.00
2023-05-16T21:45:41.548Z,100.00
2023-05-16T21:48:09.783Z,100.00
2023-05-16T21:50:38.126Z,100.00
2023-05-16T21:53:06.691Z,100.00
2023-05-16T21:55:34.636Z,100.00
2023-05-16T21:58:02.716Z,100.00
2023-05-16T22:00:31.082Z,100.00
2023-05-16T22:02:59.178Z,100.00
2023-05-16T22:05:27.717Z,100.00
2023-05-16T22:07:56.023Z,100.00
2023-05-16T22:10:24.316Z,100.00
2023-05-16T22:12:52.263Z,100.00
2023-05-16T22:15:20.692Z,100.00
2023-05-16T22:17:49.291Z,100.00
2023-05-16T22:20:17.455Z,100.00
2023-05-16T22:22:45.555Z,100.00
2023-05-16T22:25:13.807Z,100.00
2023-05-16T22:27:41.869Z,100.00
2023-05-16T22:30:10.550Z,100.00
2023-05-16T22:32:38.992Z,100.00
2023-05-16T22:35:07.947Z,100.00
2023-05-16T22:37:36.246Z,100.00
2023-05-16T22:40:05.065Z,100.00
2023-05-16T22:42:33.738Z,100.00
2023-05-16T22:45:02.154Z,100.00
2023-05-16T22:47:30.696Z,100.00
2023-05-16T22:49:59.019Z,100.00
2023-05-16T22:52:27.880Z,100.00
2023-05-16T22:54:56.097Z,100.00
2023-05-16T22:57:24.065Z,100.00
2023-05-16T22:59:54.876Z,100.00
2023-05-16T23:02:24.969Z,100.00
2023-05-16T23:04:55.558Z,100.00
2023-05-16T23:07:24.118Z,100.00
2023-05-16T23:09:52.144Z,100.00
2023-05-16T23:12:21.825Z,100.00
2023-05-16T23:14:50.007Z,100.00
2023-05-16T23:17:18.041Z,100.00
2023-05-16T23:19:46.227Z,100.00
2023-05-16T23:22:14.547Z,100.00
2023-05-16T23:24:42.623Z,100.00
2023-05-16T23:27:10.982Z,100.00
2023-05-16T23:29:39.091Z,100.00
2023-05-16T23:32:07.625Z,100.00
2023-05-16T23:34:36.053Z,100.00
2023-05-16T23:37:04.066Z,100.00
2023-05-16T23:39:32.034Z,100.00
2023-05-16T23:42:01.866Z,100.00
2023-05-16T23:44:30.634Z,100.00
2023-05-16T23:46:58.986Z,100.00
2023-05-16T23:49:27.222Z,100.00
2023-05-16T23:51:58.265Z,100.00
2023-05-16T23:54:26.966Z,100.00
2023-05-16T23:56:55.308Z,100.00
2023-05-16T23:59:24.272Z,100.00
